Time;durP1;ratioP1;P1;durP2;ratioP2;P2;SDS_P1;SDS_P2;PMS_P1;PMS_P2;Temp;Humidity;BMP_temperature;BMP_pressure;BME280_temperature;BME280_humidity;BME280_pressure;Samples;Min_cycle;Max_cycle;Signal;HPM_P1;HPM_P2
2022/08/13 00:01:56;;;;;;;7.28;3.17;;;22.70;87.00;;;;;;5044430;28;20596;-80
2022/08/13 00:04:26;;;;;;;5.10;2.92;;;22.60;86.50;;;;;;5051160;28;20024;-78
2022/08/13 00:07:07;;;;;;;7.03;3.10;;;22.60;86.50;;;;;;5050183;28;20120;-78
2022/08/13 00:09:38;;;;;;;4.75;3.22;;;22.60;86.80;;;;;;5032123;28;20415;-81
2022/08/13 00:15:09;;;;;;;6.03;2.72;;;22.40;86.50;;;;;;5044518;28;20416;-82
2022/08/13 00:17:37;;;;;;;5.10;3.47;;;22.40;87.10;;;;;;5043280;28;20032;-82
2022/08/13 00:20:04;;;;;;;5.93;3.38;;;22.30;86.90;;;;;;5051481;28;20029;-82
2022/08/13 00:22:30;;;;;;;5.30;3.35;;;22.20;86.00;;;;;;5037995;28;20458;-82
2022/08/13 00:24:57;;;;;;;4.20;3.13;;;22.20;86.90;;;;;;5041990;28;20026;-82
2022/08/13 00:27:23;;;;;;;5.03;3.17;;;22.20;87.20;;;;;;5043900;28;20037;-82
2022/08/13 00:29:53;;;;;;;4.85;3.60;;;22.10;86.80;;;;;;5039105;28;20028;-81
2022/08/13 00:32:21;;;;;;;7.55;3.75;;;22.00;87.30;;;;;;5041597;28;20140;-82
2022/08/13 00:34:49;;;;;;;5.35;3.65;;;22.00;86.70;;;;;;5047592;28;20393;-81
2022/08/13 00:37:15;;;;;;;6.82;3.25;;;22.00;86.70;;;;;;5046119;28;20079;-80
2022/08/13 00:39:41;;;;;;;9.60;3.63;;;22.00;87.50;;;;;;5040788;28;20481;-81
2022/08/13 00:42:07;;;;;;;7.05;3.22;;;22.00;87.50;;;;;;5044021;28;20071;-81
2022/08/13 00:44:33;;;;;;;4.90;3.45;;;21.90;87.50;;;;;;5045198;28;20047;-80
2022/08/13 00:49:47;;;;;;;7.70;3.60;;;21.80;87.40;;;;;;5040603;28;20484;-82
2022/08/13 00:52:13;;;;;;;6.35;3.53;;;21.80;90.00;;;;;;5033964;28;20024;-81
2022/08/13 00:54:40;;;;;;;6.97;3.60;;;21.70;90.40;;;;;;5042005;28;20107;-80
2022/08/13 00:57:08;;;;;;;6.45;3.45;;;21.70;90.60;;;;;;5043552;28;20108;-81
2022/08/13 00:59:34;;;;;;;7.38;3.83;;;21.60;90.50;;;;;;5044111;28;20485;-81
2022/08/13 01:02:00;;;;;;;6.60;3.58;;;21.50;92.00;;;;;;5041358;28;20028;-80
2022/08/13 01:04:28;;;;;;;5.15;3.70;;;21.50;92.90;;;;;;5046906;28;20052;-81
2022/08/13 01:06:58;;;;;;;3.95;3.33;;;21.40;91.40;;;;;;5044033;28;20078;-80
2022/08/13 01:09:29;;;;;;;4.32;3.65;;;21.40;90.50;;;;;;5035371;28;20815;-79
2022/08/13 01:11:59;;;;;;;4.90;3.67;;;21.40;90.60;;;;;;5047690;28;20078;-81
2022/08/13 01:14:31;;;;;;;4.35;3.22;;;21.40;90.80;;;;;;5049690;28;20462;-80
2022/08/13 01:17:00;;;;;;;4.68;3.70;;;21.40;91.20;;;;;;5041967;28;20025;-79
2022/08/13 01:19:26;;;;;;;5.35;3.60;;;21.30;90.70;;;;;;5045813;28;20017;-79
2022/08/13 01:21:53;;;;;;;4.50;3.40;;;21.30;90.40;;;;;;5040469;28;20048;-80
2022/08/13 01:24:20;;;;;;;5.45;3.88;;;21.30;90.10;;;;;;5047293;28;20198;-80
2022/08/13 01:26:48;;;;;;;7.10;3.92;;;21.30;90.40;;;;;;5043729;28;20059;-80
2022/08/13 01:29:16;;;;;;;4.05;3.63;;;21.30;90.70;;;;;;5049782;28;20063;-80
2022/08/13 01:31:43;;;;;;;5.70;3.92;;;21.30;90.70;;;;;;5036597;28;20029;-80
2022/08/13 01:34:09;;;;;;;5.55;3.47;;;21.20;91.00;;;;;;5041914;28;20020;-81
2022/08/13 01:36:35;;;;;;;4.13;3.75;;;21.20;91.50;;;;;;5038709;28;20412;-80
2022/08/13 01:39:05;;;;;;;4.20;3.83;;;21.20;91.10;;;;;;5040035;28;20029;-79
2022/08/13 01:41:32;;;;;;;7.70;4.43;;;21.20;91.10;;;;;;5046888;28;20412;-80
2022/08/13 01:44:00;;;;;;;7.35;4.72;;;21.10;90.90;;;;;;5054491;28;20051;-78
2022/08/13 01:46:26;;;;;;;7.68;3.97;;;21.10;90.90;;;;;;5045383;28;20037;-77
2022/08/13 01:51:37;;;;;;;5.88;3.22;;;21.00;91.00;;;;;;5046852;28;20075;-79
2022/08/13 01:54:05;;;;;;;6.72;3.25;;;21.00;90.80;;;;;;5038543;28;20071;-79
2022/08/13 01:56:32;;;;;;;6.50;3.78;;;20.90;90.60;;;;;;5042842;28;20025;-79
2022/08/13 01:59:01;;;;;;;5.45;3.50;;;20.90;90.70;;;;;;5048398;28;20029;-77
2022/08/13 02:01:30;;;;;;;4.78;3.17;;;20.90;90.50;;;;;;5042282;28;20029;-79
2022/08/13 02:03:57;;;;;;;6.15;3.63;;;20.80;91.00;;;;;;5045063;28;20036;-78
2022/08/13 02:06:25;;;;;;;5.40;3.65;;;20.80;91.40;;;;;;5055008;28;20076;-77
2022/08/13 02:08:56;;;;;;;6.28;3.65;;;20.70;91.00;;;;;;5051451;28;20025;-76
2022/08/13 02:11:22;;;;;;;5.50;3.90;;;20.70;90.70;;;;;;5039941;28;20377;-78
2022/08/13 02:13:48;;;;;;;15.52;3.70;;;20.70;90.80;;;;;;5042584;28;20029;-79
2022/08/13 02:16:14;;;;;;;6.85;3.72;;;20.60;91.00;;;;;;5046034;28;20519;-80
2022/08/13 02:18:40;;;;;;;5.75;4.13;;;20.60;91.10;;;;;;5047684;28;20017;-79
2022/08/13 02:21:06;;;;;;;5.97;3.50;;;20.50;91.00;;;;;;5047545;28;20443;-77
2022/08/13 02:23:33;;;;;;;6.38;3.55;;;20.50;91.30;;;;;;5048478;28;20029;-78
2022/08/13 02:26:05;;;;;;;4.15;3.63;;;20.50;91.10;;;;;;5045172;28;20509;-79
2022/08/13 02:28:39;;;;;;;4.05;3.67;;;20.40;91.30;;;;;;5046806;28;20038;-78
2022/08/13 02:31:07;;;;;;;4.13;3.50;;;20.40;91.20;;;;;;5052549;28;20063;-79
2022/08/13 02:33:37;;;;;;;5.68;4.28;;;20.40;91.10;;;;;;5043276;28;20040;-77
2022/08/13 02:36:09;;;;;;;5.18;4.05;;;20.40;91.40;;;;;;5040819;28;20029;-79
2022/08/13 02:38:34;;;;;;;4.10;3.63;;;20.40;91.30;;;;;;5047041;28;20040;-77
2022/08/13 02:43:50;;;;;;;6.18;3.90;;;20.30;91.60;;;;;;5052698;28;20040;-77
2022/08/13 02:46:16;;;;;;;5.15;3.67;;;20.30;91.60;;;;;;5048423;28;20029;-79
2022/08/13 02:48:42;;;;;;;6.07;4.10;;;20.20;91.60;;;;;;5043295;28;20026;-77
2022/08/13 02:51:11;;;;;;;4.30;3.63;;;20.20;92.00;;;;;;5048864;28;20025;-78
2022/08/13 02:53:40;;;;;;;6.53;3.72;;;20.20;91.60;;;;;;5043585;28;20044;-78
2022/08/13 02:56:08;;;;;;;6.80;4.03;;;20.10;91.60;;;;;;5049098;28;20469;-78
2022/08/13 02:58:36;;;;;;;7.22;4.18;;;20.10;92.20;;;;;;5042343;28;20025;-79
2022/08/13 03:01:03;;;;;;;4.55;3.60;;;20.00;92.20;;;;;;5046637;28;20037;-76
2022/08/13 03:03:31;;;;;;;8.48;3.88;;;20.00;92.20;;;;;;5040355;28;20017;-78
2022/08/13 03:05:57;;;;;;;5.35;4.03;;;20.10;92.10;;;;;;5048142;28;20077;-79
2022/08/13 03:08:23;;;;;;;5.80;3.90;;;20.00;92.00;;;;;;5050233;28;20027;-78
2022/08/13 03:10:53;;;;;;;4.13;3.80;;;19.90;92.40;;;;;;5039324;28;20033;-79
2022/08/13 03:13:32;;;;;;;8.30;3.85;;;19.90;92.70;;;;;;5045468;28;20036;-78
2022/08/13 03:16:00;;;;;;;5.18;4.00;;;19.90;92.50;;;;;;5043178;28;20500;-78
2022/08/13 03:18:26;;;;;;;6.32;4.00;;;19.90;92.20;;;;;;5042201;28;20052;-75
2022/08/13 03:20:52;;;;;;;5.70;4.22;;;19.90;92.10;;;;;;5042923;28;20033;-77
2022/08/13 03:23:18;;;;;;;8.82;4.13;;;19.80;92.40;;;;;;5044956;28;20073;-77
2022/08/13 03:25:44;;;;;;;8.60;3.88;;;19.70;92.40;;;;;;5046554;28;20540;-76
2022/08/13 03:28:10;;;;;;;9.73;4.20;;;19.80;92.50;;;;;;5041155;28;20021;-78
2022/08/13 03:30:36;;;;;;;6.93;4.60;;;19.70;92.40;;;;;;5048939;28;20605;-78
2022/08/13 03:33:07;;;;;;;4.82;3.83;;;19.70;92.40;;;;;;5048388;28;20029;-78
2022/08/13 03:35:35;;;;;;;5.70;4.10;;;19.60;92.40;;;;;;5050220;28;20040;-77
2022/08/13 03:38:03;;;;;;;4.85;3.80;;;19.60;92.30;;;;;;5041713;28;20041;-78
2022/08/13 03:43:13;;;;;;;5.93;4.20;;;19.60;92.50;;;;;;5046422;28;20087;-77
2022/08/13 03:45:40;;;;;;;4.60;3.83;;;19.50;92.60;;;;;;5039969;28;20021;-78
2022/08/13 03:48:06;;;;;;;4.50;4.10;;;19.50;93.00;;;;;;5042207;28;20117;-78
2022/08/13 03:50:33;;;;;;;7.07;4.10;;;19.40;92.70;;;;;;5044209;28;20043;-79
2022/08/13 03:53:03;;;;;;;5.63;3.75;;;19.30;93.10;;;;;;5044705;28;20033;-78
2022/08/13 03:55:30;;;;;;;7.70;3.70;;;19.30;93.20;;;;;;5047939;28;20116;-79
2022/08/13 03:57:57;;;;;;;5.53;3.95;;;19.30;92.90;;;;;;5042496;28;20016;-78
2022/08/13 04:00:28;;;;;;;4.70;4.22;;;19.30;93.00;;;;;;5045401;28;20029;-78
2022/08/13 04:02:55;;;;;;;6.57;3.72;;;19.30;92.70;;;;;;5049931;28;20047;-78
2022/08/13 04:05:22;;;;;;;7.45;3.88;;;19.20;92.40;;;;;;5042867;28;20029;-78
2022/08/13 04:07:50;;;;;;;5.75;4.05;;;19.10;92.70;;;;;;5046950;28;20476;-78
2022/08/13 04:10:17;;;;;;;3.75;3.33;;;19.10;92.50;;;;;;5038173;28;20029;-78
2022/08/13 04:12:42;;;;;;;6.30;4.68;;;19.10;92.90;;;;;;5042053;28;20064;-78
2022/08/13 04:15:08;;;;;;;7.95;3.65;;;19.10;93.90;;;;;;5032663;28;20053;-78
2022/08/13 04:17:40;;;;;;;6.80;4.10;;;19.00;93.40;;;;;;5050367;28;20099;-79
2022/08/13 04:20:10;;;;;;;10.07;3.30;;;18.90;93.30;;;;;;5043479;28;20021;-78
2022/08/13 04:22:39;;;;;;;9.85;4.00;;;18.90;92.90;;;;;;5038452;28;20021;-78
2022/08/13 04:25:08;;;;;;;6.55;4.32;;;18.90;93.10;;;;;;5044254;28;20036;-77
2022/08/13 04:27:34;;;;;;;7.20;4.00;;;18.80;93.30;;;;;;5047332;28;20071;-78
2022/08/13 04:30:02;;;;;;;5.30;3.60;;;18.90;93.00;;;;;;5050965;28;20032;-78
2022/08/13 04:32:28;;;;;;;6.57;4.20;;;18.90;93.40;;;;;;5033093;28;20051;-78
2022/08/13 04:34:54;;;;;;;7.22;4.35;;;18.80;93.30;;;;;;5041930;28;20441;-78
2022/08/13 04:37:22;;;;;;;5.63;4.20;;;18.80;94.40;;;;;;5047444;28;20096;-78
2022/08/13 04:39:50;;;;;;;5.55;4.10;;;18.80;93.90;;;;;;5045414;28;20079;-79
2022/08/13 04:42:15;;;;;;;4.03;3.58;;;18.80;93.90;;;;;;5042634;28;20028;-79
2022/08/13 04:44:41;;;;;;;4.13;3.72;;;18.70;93.60;;;;;;5044075;28;20035;-78
2022/08/13 04:47:06;;;;;;;6.20;4.00;;;18.70;93.90;;;;;;5040471;28;20033;-78
2022/08/13 04:49:32;;;;;;;4.75;4.15;;;18.70;93.90;;;;;;5045571;28;20021;-78
2022/08/13 04:51:58;;;;;;;4.90;4.35;;;18.70;94.00;;;;;;5040456;28;20363;-72
2022/08/13 04:54:24;;;;;;;9.63;4.57;;;18.70;93.70;;;;;;5045323;28;20037;-79
2022/08/13 04:56:49;;;;;;;6.70;4.28;;;18.60;93.90;;;;;;5040978;28;20029;-78
2022/08/13 04:59:15;;;;;;;7.57;4.13;;;18.60;93.90;;;;;;5040036;28;20032;-78
2022/08/13 05:01:41;;;;;;;5.13;4.50;;;18.60;93.80;;;;;;5037864;28;20470;-78
2022/08/13 05:04:07;;;;;;;9.00;4.32;;;18.60;94.00;;;;;;5040210;28;20478;-78
2022/08/13 05:06:32;;;;;;;9.57;4.40;;;18.60;94.10;;;;;;5038622;28;20043;-78
2022/08/13 05:09:02;;;;;;;7.45;4.05;;;18.60;94.50;;;;;;5039744;28;20076;-77
2022/08/13 05:11:29;;;;;;;8.63;4.00;;;18.50;94.40;;;;;;5045988;28;20067;-78
2022/08/13 05:13:55;;;;;;;6.55;4.55;;;18.50;94.30;;;;;;5041317;28;20026;-78
2022/08/13 05:16:20;;;;;;;6.25;4.13;;;18.50;94.40;;;;;;5045739;28;20036;-78
2022/08/13 05:18:54;;;;;;;15.40;4.60;;;18.50;94.30;;;;;;5045180;28;20056;-78
2022/08/13 05:21:22;;;;;;;7.03;3.92;;;18.50;94.50;;;;;;5042053;28;20029;-77
2022/08/13 05:23:53;;;;;;;6.85;4.28;;;18.50;94.70;;;;;;5051696;28;20075;-78
2022/08/13 05:26:21;;;;;;;7.00;3.65;;;18.50;94.80;;;;;;5045176;28;20029;-78
2022/08/13 05:28:48;;;;;;;8.23;3.90;;;18.60;94.70;;;;;;5040274;28;20021;-78
2022/08/13 05:31:13;;;;;;;8.02;4.18;;;18.50;95.00;;;;;;5042408;28;20083;-78
2022/08/13 05:33:39;;;;;;;4.55;3.83;;;18.50;95.40;;;;;;5043204;28;20326;-78
2022/08/13 05:36:05;;;;;;;5.70;3.40;;;18.60;94.90;;;;;;5043124;28;20436;-78
2022/08/13 05:38:31;;;;;;;9.85;4.15;;;18.60;95.00;;;;;;5048855;28;20370;-78
2022/08/13 05:41:06;;;;;;;4.75;3.65;;;18.60;94.90;;;;;;5052351;28;20026;-78
2022/08/13 05:43:36;;;;;;;6.90;3.60;;;18.60;95.00;;;;;;5046335;28;20021;-77
2022/08/13 05:46:08;;;;;;;7.93;3.88;;;18.60;95.00;;;;;;5041239;28;20034;-78
2022/08/13 05:48:39;;;;;;;6.53;3.70;;;18.60;95.20;;;;;;5054032;28;20425;-77
2022/08/13 05:51:08;;;;;;;6.87;3.67;;;18.70;95.10;;;;;;5052509;28;20037;-77
2022/08/13 05:53:38;;;;;;;6.13;4.25;;;18.70;95.10;;;;;;5046441;28;20469;-78
2022/08/13 05:56:06;;;;;;;6.35;4.45;;;18.70;94.90;;;;;;5042353;28;20037;-78
2022/08/13 05:58:32;;;;;;;5.57;4.25;;;18.70;95.10;;;;;;5047887;28;20071;-78
2022/08/13 06:03:43;;;;;;;4.90;3.25;;;18.80;95.30;;;;;;5044816;28;20091;-77
2022/08/13 06:06:12;;;;;;;5.82;3.88;;;18.80;95.60;;;;;;5046671;28;20142;-77
2022/08/13 06:08:40;;;;;;;5.82;3.80;;;18.80;95.10;;;;;;5045582;28;20022;-78
2022/08/13 06:11:17;;;;;;;10.18;4.90;;;18.90;95.40;;;;;;5052915;28;20028;-78
2022/08/13 06:13:45;;;;;;;5.22;4.70;;;18.90;95.70;;;;;;5035532;28;20694;-78
2022/08/13 06:16:13;;;;;;;6.95;4.28;;;18.90;95.50;;;;;;5046971;28;20183;-78
2022/08/13 06:18:43;;;;;;;8.75;3.92;;;19.00;97.20;;;;;;5045874;28;20074;-78
2022/08/13 06:21:12;;;;;;;7.28;5.03;;;19.00;95.90;;;;;;5051779;28;20404;-78
2022/08/13 06:23:39;;;;;;;7.30;5.00;;;19.00;96.30;;;;;;5057440;28;20095;-78
2022/08/13 06:26:07;;;;;;;6.18;4.60;;;19.10;96.00;;;;;;5052309;28;20091;-78
2022/08/13 06:28:34;;;;;;;7.00;4.60;;;19.10;96.50;;;;;;5045704;28;20030;-78
2022/08/13 06:31:03;;;;;;;9.98;4.78;;;19.10;97.00;;;;;;5029669;28;20485;-77
2022/08/13 06:33:30;;;;;;;5.50;4.60;;;19.10;97.60;;;;;;5043231;28;20037;-78
2022/08/13 06:35:58;;;;;;;7.13;4.30;;;19.10;97.60;;;;;;5044476;28;20638;-78
2022/08/13 06:38:30;;;;;;;4.88;4.03;;;19.10;97.90;;;;;;5046896;28;20025;-76
2022/08/13 06:40:59;;;;;;;9.93;4.30;;;19.10;98.40;;;;;;5042640;28;20465;-77
2022/08/13 06:43:29;;;;;;;5.93;3.75;;;19.10;99.20;;;;;;5048540;28;20032;-78
2022/08/13 06:45:58;;;;;;;9.68;3.83;;;19.10;98.90;;;;;;5047628;28;20033;-78
2022/08/13 06:48:24;;;;;;;8.80;4.15;;;19.20;99.90;;;;;;5040640;28;20036;-79
2022/08/13 06:50:50;;;;;;;7.75;3.83;;;19.30;99.90;;;;;;5044492;28;20071;-78
2022/08/13 06:53:17;;;;;;;8.27;3.92;;;19.30;99.90;;;;;;5050117;28;20025;-78
2022/08/13 06:55:45;;;;;;;6.85;3.25;;;19.50;99.40;;;;;;5058944;28;20033;-79
2022/08/13 06:58:11;;;;;;;4.82;3.70;;;19.50;99.50;;;;;;5055019;28;20102;-78
2022/08/13 07:00:38;;;;;;;3.50;3.20;;;19.60;99.90;;;;;;5058715;28;20047;-79
2022/08/13 07:03:06;;;;;;;5.00;2.92;;;19.70;99.90;;;;;;5057458;28;20028;-79
2022/08/13 07:05:37;;;;;;;4.55;3.28;;;19.80;99.80;;;;;;5049603;28;20115;-79
2022/08/13 07:08:04;;;;;;;5.05;2.97;;;19.90;99.90;;;;;;5051123;28;20029;-79
2022/08/13 07:10:32;;;;;;;3.40;3.10;;;20.00;99.90;;;;;;5057924;28;20013;-79
2022/08/13 07:12:58;;;;;;;8.70;3.88;;;20.10;99.90;;;;;;5060735;28;20025;-79
2022/08/13 07:15:24;;;;;;;6.90;2.92;;;20.20;99.90;;;;;;5061026;28;20027;-80
2022/08/13 07:17:50;;;;;;;6.32;3.00;;;20.30;99.90;;;;;;5055094;28;20547;-79
2022/08/13 07:20:17;;;;;;;4.05;2.85;;;20.40;99.80;;;;;;5054958;28;20029;-80
2022/08/13 07:22:44;;;;;;;5.45;3.05;;;20.50;99.90;;;;;;5046643;28;20092;-81
2022/08/13 07:25:10;;;;;;;5.30;2.78;;;20.70;99.90;;;;;;5042973;28;20044;-81
2022/08/13 07:27:41;;;;;;;6.15;2.78;;;20.80;99.90;;;;;;5046364;28;20071;-81
2022/08/13 07:30:14;;;;;;;4.45;3.05;;;20.80;99.80;;;;;;5038836;28;20474;-78
2022/08/13 07:32:40;;;;;;;5.82;2.95;;;21.00;98.00;;;;;;5045781;28;20025;-77
2022/08/13 07:35:08;;;;;;;7.07;3.50;;;21.20;99.40;;;;;;5028727;28;20423;-78
2022/08/13 07:37:35;;;;;;;4.10;2.65;;;21.40;98.50;;;;;;5042876;28;20020;-78
2022/08/13 07:40:03;;;;;;;5.07;2.90;;;21.50;97.60;;;;;;5046848;28;20021;-79
2022/08/13 07:42:31;;;;;;;3.33;2.65;;;21.70;97.00;;;;;;5046616;28;20481;-77
2022/08/13 07:44:58;;;;;;;6.13;3.20;;;22.00;98.10;;;;;;5056143;28;20013;-77
2022/08/13 07:47:24;;;;;;;5.95;2.65;;;22.10;99.90;;;;;;5036075;28;20040;-79
2022/08/13 07:49:53;;;;;;;4.85;2.33;;;22.20;98.80;;;;;;5046259;28;20032;-79
2022/08/13 07:52:19;;;;;;;3.40;2.75;;;22.30;98.40;;;;;;5039534;28;20024;-79
2022/08/13 07:54:47;;;;;;;5.32;2.45;;;22.50;99.90;;;;;;5045644;28;20029;-79
2022/08/13 07:57:13;;;;;;;8.27;3.35;;;22.60;98.00;;;;;;5051486;28;20017;-80
2022/08/13 07:59:38;;;;;;;5.78;2.58;;;22.80;95.90;;;;;;5054507;28;20047;-79
2022/08/13 08:02:06;;;;;;;6.68;2.78;;;23.00;97.50;;;;;;5040553;28;20025;-80
2022/08/13 08:04:34;;;;;;;4.93;2.28;;;23.10;95.80;;;;;;5051960;28;20036;-80
2022/08/13 08:07:01;;;;;;;6.60;2.55;;;23.30;94.30;;;;;;5049743;28;20473;-81
2022/08/13 08:09:31;;;;;;;6.35;2.60;;;23.60;97.30;;;;;;5058344;28;20075;-81
2022/08/13 08:15:08;;;;;;;8.85;2.55;;;23.80;94.40;;;;;;4993915;28;20041;-79
2022/08/13 08:17:34;;;;;;;11.25;2.47;;;24.00;95.10;;;;;;5046350;28;20040;-81
2022/08/13 08:20:02;;;;;;;5.65;2.55;;;24.10;97.60;;;;;;5045564;28;20030;-80
2022/08/13 08:22:29;;;;;;;7.15;2.35;;;24.20;95.00;;;;;;5040233;28;20021;-80
2022/08/13 08:24:56;;;;;;;5.78;2.10;;;24.40;96.50;;;;;;5059798;28;20058;-80
2022/08/13 08:27:24;;;;;;;7.60;2.53;;;24.50;94.80;;;;;;5043631;28;20388;-80
2022/08/13 08:29:49;;;;;;;5.55;2.10;;;24.60;97.00;;;;;;5042427;28;20470;-80
2022/08/13 08:32:17;;;;;;;8.43;2.40;;;24.80;95.90;;;;;;5037296;28;20029;-80
2022/08/13 08:34:46;;;;;;;5.55;2.20;;;24.90;93.70;;;;;;5030183;28;20033;-80
2022/08/13 08:42:49;;;;;;;5.20;2.42;;;25.30;96.80;;;;;;5042527;28;20071;-83
2022/08/13 08:45:18;;;;;;;7.57;2.42;;;25.50;95.00;;;;;;5024295;28;20025;-82
2022/08/13 08:47:45;;;;;;;5.47;2.03;;;25.80;94.40;;;;;;5050540;28;20037;-78
2022/08/13 08:50:11;;;;;;;6.07;1.90;;;25.90;94.90;;;;;;5044661;28;20051;-79
2022/08/13 08:55:24;;;;;;;8.48;1.92;;;26.30;90.50;;;;;;5049036;28;20040;-80
2022/08/13 08:57:52;;;;;;;8.95;2.67;;;26.50;90.10;;;;;;5026575;28;20483;-79
2022/08/13 09:00:19;;;;;;;4.78;2.30;;;26.60;91.70;;;;;;5042560;28;20052;-80
2022/08/13 09:02:49;;;;;;;6.65;2.03;;;26.80;88.40;;;;;;5042430;28;20115;-80
2022/08/13 09:05:17;;;;;;;10.68;2.08;;;26.90;89.90;;;;;;5060485;28;20032;-80
2022/08/13 09:07:47;;;;;;;4.80;2.03;;;27.00;90.60;;;;;;5054936;28;20442;-79
2022/08/13 09:10:15;;;;;;;2.72;1.95;;;27.10;87.30;;;;;;5053256;28;20025;-79
2022/08/13 09:12:44;;;;;;;4.00;2.38;;;27.30;86.30;;;;;;5048360;28;20024;-79
2022/08/13 09:15:11;;;;;;;3.85;2.28;;;27.50;88.80;;;;;;5033480;28;20021;-79
2022/08/13 09:17:38;;;;;;;2.60;1.80;;;27.60;86.90;;;;;;5047781;28;20178;-79
2022/08/13 09:20:07;;;;;;;2.00;1.80;;;27.70;85.30;;;;;;5062042;28;20036;-79
2022/08/13 09:22:34;;;;;;;3.40;1.88;;;28.00;86.70;;;;;;5055010;28;20020;-79
2022/08/13 09:24:59;;;;;;;2.08;1.88;;;28.00;83.10;;;;;;5052761;28;20064;-78
2022/08/13 09:27:28;;;;;;;5.30;1.55;;;28.20;81.10;;;;;;5048280;28;20060;-79
2022/08/13 09:29:54;;;;;;;4.53;1.90;;;28.20;79.90;;;;;;5055669;28;20029;-79
2022/08/13 09:32:21;;;;;;;3.10;1.48;;;28.40;77.90;;;;;;5039372;28;20037;-79
2022/08/13 09:34:47;;;;;;;4.10;1.80;;;28.40;75.90;;;;;;5055704;28;20028;-79
2022/08/13 09:37:13;;;;;;;3.60;1.80;;;28.40;76.90;;;;;;5051652;28;20020;-78
2022/08/13 09:39:49;;;;;;;2.63;1.42;;;28.60;80.50;;;;;;5059511;28;20103;-78
2022/08/13 09:42:26;;;;;;;2.45;1.65;;;28.70;80.00;;;;;;5039297;28;20086;-78
2022/08/13 09:44:58;;;;;;;4.00;1.30;;;28.90;77.40;;;;;;5046440;28;20036;-79
2022/08/13 09:47:25;;;;;;;5.07;1.83;;;29.20;76.40;;;;;;5049447;28;20082;-78
2022/08/13 09:49:51;;;;;;;4.30;2.13;;;29.30;77.60;;;;;;5048245;28;20452;-78
2022/08/13 09:52:17;;;;;;;5.43;2.05;;;29.40;77.50;;;;;;5043788;28;20031;-78
2022/08/13 09:54:43;;;;;;;4.63;1.75;;;29.50;76.10;;;;;;5055031;28;20052;-79
2022/08/13 09:57:09;;;;;;;3.28;1.73;;;29.70;74.70;;;;;;5042473;28;20053;-80
2022/08/13 09:59:35;;;;;;;6.85;1.67;;;29.90;76.60;;;;;;5043424;28;20017;-79
2022/08/13 10:02:08;;;;;;;4.00;1.60;;;29.90;74.80;;;;;;5046325;28;20047;-79
2022/08/13 10:04:33;;;;;;;4.10;2.00;;;30.00;73.50;;;;;;5038959;28;20028;-79
2022/08/13 10:07:00;;;;;;;4.65;1.60;;;30.20;74.00;;;;;;5030321;28;20120;-79
2022/08/13 10:09:26;;;;;;;4.88;1.70;;;30.20;75.30;;;;;;5053858;28;20016;-79
2022/08/13 10:11:53;;;;;;;4.38;1.60;;;30.30;70.70;;;;;;5039108;28;20052;-79
2022/08/13 10:14:19;;;;;;;4.18;1.50;;;30.50;76.50;;;;;;5058297;28;20113;-79
2022/08/13 10:16:45;;;;;;;3.63;1.75;;;30.50;72.60;;;;;;5027674;28;20112;-79
2022/08/13 10:19:11;;;;;;;2.10;1.40;;;30.70;73.20;;;;;;5052330;28;20132;-79
2022/08/13 10:21:37;;;;;;;1.92;1.45;;;30.70;74.20;;;;;;5059342;28;20028;-79
2022/08/13 10:24:04;;;;;;;2.45;1.40;;;30.90;73.20;;;;;;5046433;28;20033;-79
2022/08/13 10:26:31;;;;;;;5.80;1.58;;;30.80;69.70;;;;;;5044918;28;20053;-79
2022/08/13 10:28:57;;;;;;;1.50;1.40;;;30.90;71.70;;;;;;5052491;28;20029;-79
2022/08/13 10:31:27;;;;;;;2.80;1.42;;;30.90;70.30;;;;;;5047206;28;20033;-79
2022/08/13 10:33:58;;;;;;;1.05;1.02;;;31.00;70.40;;;;;;5039512;28;20034;-78
2022/08/13 10:36:25;;;;;;;4.53;1.48;;;31.10;69.90;;;;;;5041401;28;20022;-79
2022/08/13 10:38:51;;;;;;;2.35;1.30;;;31.20;67.40;;;;;;5045540;28;20435;-79
2022/08/13 10:41:17;;;;;;;1.75;1.30;;;31.30;70.60;;;;;;5042290;28;20060;-79
2022/08/13 10:43:43;;;;;;;1.40;1.08;;;31.40;71.30;;;;;;5029092;28;20036;-80
2022/08/13 10:46:16;;;;;;;2.47;1.65;;;31.20;64.30;;;;;;5049295;28;20033;-83
2022/08/13 10:48:42;;;;;;;3.13;1.63;;;31.20;68.30;;;;;;5049243;28;20032;-84
2022/08/13 10:51:08;;;;;;;5.85;1.50;;;31.60;69.50;;;;;;5040254;28;20029;-76
2022/08/13 10:56:18;;;;;;;3.28;1.40;;;31.40;69.00;;;;;;5061590;28;20408;-74
2022/08/13 10:58:44;;;;;;;4.97;1.25;;;31.60;70.00;;;;;;5051456;28;20120;-76
2022/08/13 11:01:10;;;;;;;3.88;1.25;;;31.70;65.50;;;;;;5048217;28;20385;-76
2022/08/13 11:03:37;;;;;;;3.95;1.38;;;31.60;67.70;;;;;;5055417;28;20028;-74
2022/08/13 11:06:06;;;;;;;1.58;1.42;;;31.80;66.40;;;;;;5037563;28;20422;-79
2022/08/13 11:08:36;;;;;;;2.20;1.42;;;31.70;63.40;;;;;;5033076;28;20017;-78
2022/08/13 11:11:03;;;;;;;1.02;0.93;;;31.90;64.80;;;;;;5055961;28;20078;-79
2022/08/13 11:13:31;;;;;;;1.20;1.05;;;31.90;66.00;;;;;;5041126;28;20044;-80
2022/08/13 11:15:58;;;;;;;3.03;1.30;;;32.00;62.90;;;;;;5046371;28;20656;-79
2022/08/13 11:18:24;;;;;;;1.58;1.27;;;32.10;65.10;;;;;;5043950;28;20033;-82
2022/08/13 11:21:08;;;;;;;2.05;1.20;;;32.10;62.70;;;;;;5039329;28;20030;-80
2022/08/13 11:23:35;;;;;;;3.13;1.38;;;32.20;66.00;;;;;;5042112;28;20017;-77
2022/08/13 11:26:02;;;;;;;2.47;1.30;;;32.60;62.70;;;;;;5050091;28;20427;-78
2022/08/13 11:28:28;;;;;;;2.45;1.40;;;32.60;64.00;;;;;;5038350;28;20029;-80
2022/08/13 11:30:55;;;;;;;3.88;1.27;;;32.50;61.10;;;;;;5046368;28;20477;-75
2022/08/13 11:33:24;;;;;;;2.58;1.02;;;32.50;60.00;;;;;;5053441;28;20118;-77
2022/08/13 11:35:51;;;;;;;2.80;0.95;;;32.40;61.60;;;;;;5039191;28;20048;-77
2022/08/13 11:38:22;;;;;;;2.90;1.25;;;32.40;60.40;;;;;;5044686;28;20110;-75
2022/08/13 11:40:57;;;;;;;0.80;0.80;;;32.50;60.80;;;;;;5045733;28;20140;-84
2022/08/13 11:43:28;;;;;;;1.30;1.20;;;32.70;61.50;;;;;;5047762;28;20044;-82
2022/08/13 11:45:56;;;;;;;3.65;1.10;;;32.70;60.60;;;;;;5031397;28;20090;-88
2022/08/13 11:48:23;;;;;;;2.38;0.70;;;32.80;61.60;;;;;;5044856;28;20096;-85
2022/08/13 11:50:51;;;;;;;1.63;1.02;;;32.80;58.60;;;;;;5039071;28;20057;-86
2022/08/13 11:53:18;;;;;;;1.95;0.80;;;32.60;59.30;;;;;;5049236;28;20029;-79
2022/08/13 11:55:45;;;;;;;2.88;1.50;;;32.40;59.90;;;;;;5047830;28;20386;-84
2022/08/13 11:58:10;;;;;;;2.92;1.20;;;32.60;60.90;;;;;;5038839;28;20115;-84
2022/08/13 12:00:38;;;;;;;1.38;1.25;;;32.70;62.00;;;;;;5045276;28;20488;-84
2022/08/13 12:03:05;;;;;;;3.30;1.30;;;32.60;60.70;;;;;;5047964;28;20033;-82
2022/08/13 12:05:31;;;;;;;1.17;0.90;;;32.80;62.00;;;;;;5049627;28;20469;-87
2022/08/13 12:07:57;;;;;;;3.05;1.30;;;32.70;59.60;;;;;;5046546;28;20067;-82
2022/08/13 12:10:24;;;;;;;5.43;1.45;;;32.60;58.00;;;;;;5029568;28;20381;-83
2022/08/13 12:12:49;;;;;;;2.88;1.30;;;32.70;62.50;;;;;;5039399;28;20108;-83
2022/08/13 12:15:15;;;;;;;3.38;1.30;;;32.70;63.80;;;;;;5047087;28;20108;-85
2022/08/13 12:17:43;;;;;;;3.55;1.35;;;33.00;63.30;;;;;;5045240;28;20033;-82
2022/08/13 12:20:15;;;;;;;4.38;1.10;;;33.00;62.90;;;;;;5043965;28;20072;-83
2022/08/13 12:22:41;;;;;;;;;;;33.30;60.00;;;;;;5031078;28;20045;-79
2022/08/13 12:25:11;;;;;;;1.85;1.20;;;33.50;62.20;;;;;;5045923;28;19908;-84
2022/08/13 12:27:39;;;;;;;1.30;1.20;;;33.40;62.10;;;;;;5050027;28;20115;-85
2022/08/13 12:30:06;;;;;;;3.90;1.30;;;33.40;58.60;;;;;;5051062;28;20056;-82
2022/08/13 12:32:31;;;;;;;1.42;1.20;;;33.20;58.80;;;;;;5035399;28;20041;-82
2022/08/13 12:34:57;;;;;;;2.83;1.20;;;33.10;58.50;;;;;;5045442;28;20096;-82
2022/08/13 12:37:23;;;;;;;8.02;1.92;;;33.00;60.80;;;;;;5046712;28;20021;-84
2022/08/13 12:39:56;;;;;;;2.30;1.38;;;33.30;62.90;;;;;;5044183;28;20469;-81
2022/08/13 12:42:25;;;;;;;2.38;1.38;;;33.30;61.40;;;;;;5044473;28;20392;-80
2022/08/13 12:44:50;;;;;;;2.35;1.17;;;33.20;58.90;;;;;;5045259;28;20029;-79
2022/08/13 12:47:16;;;;;;;1.60;1.50;;;33.30;61.80;;;;;;5040304;28;20037;-80
2022/08/13 12:49:42;;;;;;;2.92;1.63;;;33.20;59.00;;;;;;5022012;28;20517;-82
2022/08/13 12:52:08;;;;;;;3.00;1.00;;;33.20;58.30;;;;;;5045295;28;20104;-81
2022/08/13 12:54:34;;;;;;;6.57;1.23;;;33.30;58.30;;;;;;5045576;28;20052;-80
2022/08/13 12:57:00;;;;;;;2.72;1.30;;;33.30;59.20;;;;;;5047295;28;20062;-81
2022/08/13 12:59:25;;;;;;;2.20;1.23;;;33.40;60.20;;;;;;5040973;28;20025;-81
2022/08/13 13:01:54;;;;;;;1.42;1.30;;;33.40;59.60;;;;;;5045369;28;20025;-80
2022/08/13 13:04:22;;;;;;;4.70;1.10;;;33.50;59.00;;;;;;5041944;28;20036;-77
2022/08/13 13:06:49;;;;;;;3.88;1.27;;;33.60;64.20;;;;;;5043107;28;20123;-77
2022/08/13 13:09:15;;;;;;;3.20;1.40;;;33.70;61.20;;;;;;5049828;28;20028;-78
2022/08/13 13:11:41;;;;;;;3.10;1.50;;;33.60;61.90;;;;;;5040770;28;20037;-78
2022/08/13 13:14:07;;;;;;;3.55;1.10;;;33.70;60.70;;;;;;5046401;28;20031;-80
2022/08/13 13:16:35;;;;;;;4.82;1.60;;;33.70;60.30;;;;;;5035864;28;20052;-79
2022/08/13 13:19:02;;;;;;;1.48;1.35;;;33.60;61.90;;;;;;5046449;28;20017;-77
2022/08/13 13:21:29;;;;;;;5.53;1.25;;;33.60;58.10;;;;;;5056549;28;20470;-77